Main page
METAR-TAF:

METAR-TAF

Airports :

Istanbul Atatürk, Turkey

Istanbul Atatürk Airport

latitude: 40-58N, longitude: 028-49E, elevation: 48 m

Current weather observation

The report was made 27 minutes ago, at 15:50 UTC
Wind 8 kt from the Northeast, varying between North and South
Temperature 26°C
Humidity 32%
Pressure 1014 hPa
Visibility 10 km or more
no clouds below 1500 m and no cumulonimbus

METAR: LTBA 251550Z 04008KT 360V170 CAVOK 26/08 Q1014 NOSIG RMK RWY17L 03007KT 350V060 RWY05 VRB02KT RWY23 12004KT 060V170

Time: 19:17 (16:17 UTC)

Forecast

The report was made 5 hours and 37 minutes ago, at 10:40 UTC
Forecast valid from 25 at 12 UTC to 26 at 18 UTC
Wind 5 kt from the Southwest
Visibility 10 km or more
no clouds below 1500 m and no cumulonimbus
Becoming
from 25 at 14 UTC to 25 at 17 UTC
Wind 12 kt from the North

TAF: LTBA 251040Z 2512/2618 22005KT CAVOK BECMG 2514/2517 01012KT

Weather observations and forecasts of more than 4000 airports (METAR and TAF reports).

The available stations are represented by yellow and red dots on the map.

Hover mouse over dot to see the name of the station.

Then click to see weather observations and forecasts.

To change the map : click on the green buttons with a black cross to zoom in, on the green button with a dash to zoom out, or on the green arrows for adjacent maps.


METAR-TAF: